aviador You're here:

YCFS Decoded Metar

in
Report Time2017-07-24 16:30:00
UTC Time2017-07-24 16:46:25
Flight Rules vfr VFR
Wind280° at 05 kt
W.Decomp.*RWY 28: 5.0 kt HW 0 kt LCW
RWY 21: 1.7 kt HW 4.7 kt RCW
W.Rank280° ranks 24
Current wind is above 280° avg. (4.2)
Visibility9999 m
Phenomena:N/A
Clouds:N/A
CeilingNone
Temp05°C
Dew Point05°C (100% RH)
AAT2.1°C
QNH1021 hPa
Raw Report
METAR YCFS 241630Z AUTO 28005KT 9999 // NCD 05/05 Q1021
RF00.0/000.0=

Extra information for YCFS:More info

Social comments